sensor_id;sensor_type;location;lat;lon;timestamp;temperature;humidity
10030;DHT22;5055;52.054;8.524;2023-04-15T00:01:57;4.80;97.00
10030;DHT22;5055;52.054;8.524;2023-04-15T00:04:27;4.70;97.00
10030;DHT22;5055;52.054;8.524;2023-04-15T00:06:57;4.70;97.00
10030;DHT22;5055;52.054;8.524;2023-04-15T00:09:26;4.60;97.00
10030;DHT22;5055;52.054;8.524;2023-04-15T00:11:54;4.60;97.00
10030;DHT22;5055;52.054;8.524;2023-04-15T00:14:23;4.60;97.00
10030;DHT22;5055;52.054;8.524;2023-04-15T00:16:51;4.60;97.00
10030;DHT22;5055;52.054;8.524;2023-04-15T00:19:22;4.60;97.00
10030;DHT22;5055;52.054;8.524;2023-04-15T00:21:51;4.60;97.00
10030;DHT22;5055;52.054;8.524;2023-04-15T00:24:19;4.50;97.00
10030;DHT22;5055;52.054;8.524;2023-04-15T00:26:47;4.50;97.00
10030;DHT22;5055;52.054;8.524;2023-04-15T00:29:16;4.50;97.00
10030;DHT22;5055;52.054;8.524;2023-04-15T00:31:44;4.50;97.00
10030;DHT22;5055;52.054;8.524;2023-04-15T00:34:12;4.50;97.00
10030;DHT22;5055;52.054;8.524;2023-04-15T00:36:40;4.50;97.00
10030;DHT22;5055;52.054;8.524;2023-04-15T00:39:10;4.50;97.00
10030;DHT22;5055;52.054;8.524;2023-04-15T00:41:38;4.50;97.00
10030;DHT22;5055;52.054;8.524;2023-04-15T00:44:06;4.50;97.00
10030;DHT22;5055;52.054;8.524;2023-04-15T00:46:35;4.50;97.00
10030;DHT22;5055;52.054;8.524;2023-04-15T00:49:05;4.50;97.00
10030;DHT22;5055;52.054;8.524;2023-04-15T00:51:35;4.50;97.00
10030;DHT22;5055;52.054;8.524;2023-04-15T00:54:04;4.50;97.00
10030;DHT22;5055;52.054;8.524;2023-04-15T00:56:37;4.50;97.00
10030;DHT22;5055;52.054;8.524;2023-04-15T00:59:05;4.50;97.00
10030;DHT22;5055;52.054;8.524;2023-04-15T01:01:34;4.40;97.00
10030;DHT22;5055;52.054;8.524;2023-04-15T01:04:03;4.40;97.00
10030;DHT22;5055;52.054;8.524;2023-04-15T01:06:31;4.40;97.00
10030;DHT22;5055;52.054;8.524;2023-04-15T01:09:00;4.40;97.00
10030;DHT22;5055;52.054;8.524;2023-04-15T01:11:29;4.30;97.00
10030;DHT22;5055;52.054;8.524;2023-04-15T01:13:59;4.30;97.00
10030;DHT22;5055;52.054;8.524;2023-04-15T01:16:27;4.30;97.00
10030;DHT22;5055;52.054;8.524;2023-04-15T01:18:55;4.30;97.00
10030;DHT22;5055;52.054;8.524;2023-04-15T01:21:24;4.20;97.00
10030;DHT22;5055;52.054;8.524;2023-04-15T01:23:52;4.20;97.00
10030;DHT22;5055;52.054;8.524;2023-04-15T01:26:24;4.20;97.00
10030;DHT22;5055;52.054;8.524;2023-04-15T01:28:52;4.20;97.00
10030;DHT22;5055;52.054;8.524;2023-04-15T01:31:20;4.20;97.00
10030;DHT22;5055;52.054;8.524;2023-04-15T01:33:48;4.20;97.00
10030;DHT22;5055;52.054;8.524;2023-04-15T01:36:16;4.20;97.00
10030;DHT22;5055;52.054;8.524;2023-04-15T01:38:44;4.20;97.00
10030;DHT22;5055;52.054;8.524;2023-04-15T01:41:13;4.20;97.00
10030;DHT22;5055;52.054;8.524;2023-04-15T01:43:42;4.20;97.00
10030;DHT22;5055;52.054;8.524;2023-04-15T01:46:10;4.10;97.00
10030;DHT22;5055;52.054;8.524;2023-04-15T01:48:38;4.10;97.00
10030;DHT22;5055;52.054;8.524;2023-04-15T01:51:07;4.10;97.00
10030;DHT22;5055;52.054;8.524;2023-04-15T01:53:35;4.10;97.00
10030;DHT22;5055;52.054;8.524;2023-04-15T01:56:03;4.10;97.00
10030;DHT22;5055;52.054;8.524;2023-04-15T01:58:31;4.10;97.00
10030;DHT22;5055;52.054;8.524;2023-04-15T02:01:01;4.10;97.00
10030;DHT22;5055;52.054;8.524;2023-04-15T02:03:29;4.00;97.00
10030;DHT22;5055;52.054;8.524;2023-04-15T02:05:58;4.10;97.00
10030;DHT22;5055;52.054;8.524;2023-04-15T02:08:26;4.10;97.00
10030;DHT22;5055;52.054;8.524;2023-04-15T02:10:54;4.10;97.00
10030;DHT22;5055;52.054;8.524;2023-04-15T02:13:22;4.10;97.00
10030;DHT22;5055;52.054;8.524;2023-04-15T02:15:50;4.10;97.00
10030;DHT22;5055;52.054;8.524;2023-04-15T02:18:20;4.10;97.00
10030;DHT22;5055;52.054;8.524;2023-04-15T02:20:50;4.10;97.00
10030;DHT22;5055;52.054;8.524;2023-04-15T02:23:19;4.10;97.00
10030;DHT22;5055;52.054;8.524;2023-04-15T02:25:47;4.10;97.00
10030;DHT22;5055;52.054;8.524;2023-04-15T02:28:20;4.20;97.00
10030;DHT22;5055;52.054;8.524;2023-04-15T02:30:48;4.10;97.00
10030;DHT22;5055;52.054;8.524;2023-04-15T02:33:20;4.10;97.00
10030;DHT22;5055;52.054;8.524;2023-04-15T02:35:48;4.10;97.00
10030;DHT22;5055;52.054;8.524;2023-04-15T02:38:16;4.10;97.00
10030;DHT22;5055;52.054;8.524;2023-04-15T02:40:44;4.00;97.00
10030;DHT22;5055;52.054;8.524;2023-04-15T02:43:15;4.00;97.00
10030;DHT22;5055;52.054;8.524;2023-04-15T02:45:44;4.00;97.00
10030;DHT22;5055;52.054;8.524;2023-04-15T02:48:13;3.90;97.00
10030;DHT22;5055;52.054;8.524;2023-04-15T02:50:45;3.90;97.00
10030;DHT22;5055;52.054;8.524;2023-04-15T02:53:13;3.90;97.00
10030;DHT22;5055;52.054;8.524;2023-04-15T02:55:41;3.90;97.00
10030;DHT22;5055;52.054;8.524;2023-04-15T02:58:09;3.90;97.00
10030;DHT22;5055;52.054;8.524;2023-04-15T03:00:38;3.80;97.00
10030;DHT22;5055;52.054;8.524;2023-04-15T03:03:06;3.80;97.00
10030;DHT22;5055;52.054;8.524;2023-04-15T03:05:34;3.80;97.00
10030;DHT22;5055;52.054;8.524;2023-04-15T03:08:05;3.70;97.00
10030;DHT22;5055;52.054;8.524;2023-04-15T03:10:33;3.70;97.00
10030;DHT22;5055;52.054;8.524;2023-04-15T03:13:01;3.70;97.00
10030;DHT22;5055;52.054;8.524;2023-04-15T03:15:31;3.70;97.00
10030;DHT22;5055;52.054;8.524;2023-04-15T03:17:59;3.60;97.00
10030;DHT22;5055;52.054;8.524;2023-04-15T03:20:27;3.60;97.00
10030;DHT22;5055;52.054;8.524;2023-04-15T03:22:55;3.60;97.00
10030;DHT22;5055;52.054;8.524;2023-04-15T03:25:25;3.60;97.00
10030;DHT22;5055;52.054;8.524;2023-04-15T03:27:53;3.60;97.00
10030;DHT22;5055;52.054;8.524;2023-04-15T03:30:21;3.60;97.00
10030;DHT22;5055;52.054;8.524;2023-04-15T03:32:49;3.60;97.00
10030;DHT22;5055;52.054;8.524;2023-04-15T03:35:17;3.60;97.00
10030;DHT22;5055;52.054;8.524;2023-04-15T03:37:45;3.70;97.00
10030;DHT22;5055;52.054;8.524;2023-04-15T03:40:14;3.70;97.00
10030;DHT22;5055;52.054;8.524;2023-04-15T03:42:44;3.80;97.00
10030;DHT22;5055;52.054;8.524;2023-04-15T03:45:12;3.80;97.00
10030;DHT22;5055;52.054;8.524;2023-04-15T03:47:40;3.80;97.00
10030;DHT22;5055;52.054;8.524;2023-04-15T03:50:08;3.80;97.00
10030;DHT22;5055;52.054;8.524;2023-04-15T03:52:37;3.80;97.00
10030;DHT22;5055;52.054;8.524;2023-04-15T03:55:05;3.80;97.00
10030;DHT22;5055;52.054;8.524;2023-04-15T03:57:34;3.80;97.00
10030;DHT22;5055;52.054;8.524;2023-04-15T04:00:07;3.80;97.00
10030;DHT22;5055;52.054;8.524;2023-04-15T04:02:36;3.70;97.00
10030;DHT22;5055;52.054;8.524;2023-04-15T04:05:05;3.70;97.00
10030;DHT22;5055;52.054;8.524;2023-04-15T04:07:33;3.70;97.00
10030;DHT22;5055;52.054;8.524;2023-04-15T04:10:02;3.70;97.00
10030;DHT22;5055;52.054;8.524;2023-04-15T04:12:30;3.70;97.00
10030;DHT22;5055;52.054;8.524;2023-04-15T04:14:58;3.60;97.00
10030;DHT22;5055;52.054;8.524;2023-04-15T04:17:28;3.60;97.00
10030;DHT22;5055;52.054;8.524;2023-04-15T04:19:56;3.60;97.00
10030;DHT22;5055;52.054;8.524;2023-04-15T04:22:24;3.60;97.00
10030;DHT22;5055;52.054;8.524;2023-04-15T04:24:52;3.50;97.00
10030;DHT22;5055;52.054;8.524;2023-04-15T04:27:20;3.50;97.00
10030;DHT22;5055;52.054;8.524;2023-04-15T04:29:48;3.60;97.00
10030;DHT22;5055;52.054;8.524;2023-04-15T04:32:16;3.60;97.00
10030;DHT22;5055;52.054;8.524;2023-04-15T04:34:45;3.60;97.00
10030;DHT22;5055;52.054;8.524;2023-04-15T04:37:14;3.70;97.00
10030;DHT22;5055;52.054;8.524;2023-04-15T04:39:43;3.70;97.00
10030;DHT22;5055;52.054;8.524;2023-04-15T04:42:11;3.70;97.00
10030;DHT22;5055;52.054;8.524;2023-04-15T04:44:39;3.80;97.00
10030;DHT22;5055;52.054;8.524;2023-04-15T04:47:07;3.80;97.00
10030;DHT22;5055;52.054;8.524;2023-04-15T04:49:35;3.80;97.00
10030;DHT22;5055;52.054;8.524;2023-04-15T04:52:05;3.90;97.00
10030;DHT22;5055;52.054;8.524;2023-04-15T04:54:33;3.90;97.00
10030;DHT22;5055;52.054;8.524;2023-04-15T04:57:01;3.90;97.00
10030;DHT22;5055;52.054;8.524;2023-04-15T04:59:29;3.90;97.00
10030;DHT22;5055;52.054;8.524;2023-04-15T05:01:57;3.90;97.00
10030;DHT22;5055;52.054;8.524;2023-04-15T05:04:25;3.90;97.00
10030;DHT22;5055;52.054;8.524;2023-04-15T05:06:53;3.90;97.00
10030;DHT22;5055;52.054;8.524;2023-04-15T05:09:23;4.00;97.00
10030;DHT22;5055;52.054;8.524;2023-04-15T05:11:51;4.00;97.00
10030;DHT22;5055;52.054;8.524;2023-04-15T05:14:19;4.00;97.00
10030;DHT22;5055;52.054;8.524;2023-04-15T05:16:49;4.10;97.00
10030;DHT22;5055;52.054;8.524;2023-04-15T05:19:17;4.10;97.00
10030;DHT22;5055;52.054;8.524;2023-04-15T05:21:45;4.20;97.00
10030;DHT22;5055;52.054;8.524;2023-04-15T05:24:13;4.20;97.00
10030;DHT22;5055;52.054;8.524;2023-04-15T05:26:43;4.30;97.00
10030;DHT22;5055;52.054;8.524;2023-04-15T05:29:11;4.40;97.00
10030;DHT22;5055;52.054;8.524;2023-04-15T05:31:39;4.50;97.00
10030;DHT22;5055;52.054;8.524;2023-04-15T05:34:08;4.50;97.00
10030;DHT22;5055;52.054;8.524;2023-04-15T05:36:37;4.60;97.00
10030;DHT22;5055;52.054;8.524;2023-04-15T05:39:05;4.60;97.00
10030;DHT22;5055;52.054;8.524;2023-04-15T05:41:33;4.70;97.00
10030;DHT22;5055;52.054;8.524;2023-04-15T05:44:03;4.80;97.00
10030;DHT22;5055;52.054;8.524;2023-04-15T05:46:31;4.90;97.00
10030;DHT22;5055;52.054;8.524;2023-04-15T05:48:59;5.00;97.00
10030;DHT22;5055;52.054;8.524;2023-04-15T05:51:28;5.00;97.00
10030;DHT22;5055;52.054;8.524;2023-04-15T05:53:56;5.10;97.00
10030;DHT22;5055;52.054;8.524;2023-04-15T05:56:24;5.20;97.00
10030;DHT22;5055;52.054;8.524;2023-04-15T05:58:53;5.30;97.00
10030;DHT22;5055;52.054;8.524;2023-04-15T06:01:23;5.40;97.00
10030;DHT22;5055;52.054;8.524;2023-04-15T06:03:51;5.50;97.00
10030;DHT22;5055;52.054;8.524;2023-04-15T06:06:20;5.60;97.00
10030;DHT22;5055;52.054;8.524;2023-04-15T06:08:48;5.60;97.00
10030;DHT22;5055;52.054;8.524;2023-04-15T06:11:16;5.70;97.00
10030;DHT22;5055;52.054;8.524;2023-04-15T06:13:44;5.80;97.00
10030;DHT22;5055;52.054;8.524;2023-04-15T06:16:12;5.90;97.00
10030;DHT22;5055;52.054;8.524;2023-04-15T06:18:42;6.00;97.00
10030;DHT22;5055;52.054;8.524;2023-04-15T06:21:10;6.10;97.00
10030;DHT22;5055;52.054;8.524;2023-04-15T06:23:38;6.20;97.00
10030;DHT22;5055;52.054;8.524;2023-04-15T06:26:07;6.30;97.00
10030;DHT22;5055;52.054;8.524;2023-04-15T06:28:35;6.40;97.00
10030;DHT22;5055;52.054;8.524;2023-04-15T06:31:04;6.50;97.00
10030;DHT22;5055;52.054;8.524;2023-04-15T06:33:32;6.50;97.00
10030;DHT22;5055;52.054;8.524;2023-04-15T06:36:01;6.60;97.00
10030;DHT22;5055;52.054;8.524;2023-04-15T06:38:29;6.70;97.00
10030;DHT22;5055;52.054;8.524;2023-04-15T06:40:57;6.80;97.00
10030;DHT22;5055;52.054;8.524;2023-04-15T06:43:26;6.80;97.00
10030;DHT22;5055;52.054;8.524;2023-04-15T06:45:54;6.90;97.00
10030;DHT22;5055;52.054;8.524;2023-04-15T06:48:22;6.90;97.00
10030;DHT22;5055;52.054;8.524;2023-04-15T06:50:50;6.90;97.00
10030;DHT22;5055;52.054;8.524;2023-04-15T06:53:20;7.00;97.00
10030;DHT22;5055;52.054;8.524;2023-04-15T06:55:48;7.00;97.00
10030;DHT22;5055;52.054;8.524;2023-04-15T06:58:16;7.00;97.00
10030;DHT22;5055;52.054;8.524;2023-04-15T07:00:45;7.00;97.00
10030;DHT22;5055;52.054;8.524;2023-04-15T07:03:13;7.00;97.00
10030;DHT22;5055;52.054;8.524;2023-04-15T07:05:41;7.00;97.00
10030;DHT22;5055;52.054;8.524;2023-04-15T07:08:09;7.00;97.00
10030;DHT22;5055;52.054;8.524;2023-04-15T07:10:39;7.00;97.00
10030;DHT22;5055;52.054;8.524;2023-04-15T07:13:07;6.90;97.00
10030;DHT22;5055;52.054;8.524;2023-04-15T07:15:35;6.90;97.00
10030;DHT22;5055;52.054;8.524;2023-04-15T07:18:03;7.00;97.00
10030;DHT22;5055;52.054;8.524;2023-04-15T07:20:32;7.00;97.00
10030;DHT22;5055;52.054;8.524;2023-04-15T07:23:00;7.00;97.00
10030;DHT22;5055;52.054;8.524;2023-04-15T07:25:28;7.00;97.00
10030;DHT22;5055;52.054;8.524;2023-04-15T07:27:58;7.00;97.00
10030;DHT22;5055;52.054;8.524;2023-04-15T07:30:26;7.10;97.00
10030;DHT22;5055;52.054;8.524;2023-04-15T07:32:54;7.10;97.00
10030;DHT22;5055;52.054;8.524;2023-04-15T07:35:23;7.10;97.00
10030;DHT22;5055;52.054;8.524;2023-04-15T07:37:52;7.10;97.00
10030;DHT22;5055;52.054;8.524;2023-04-15T07:40:20;7.10;97.00
10030;DHT22;5055;52.054;8.524;2023-04-15T07:42:48;7.20;97.00
10030;DHT22;5055;52.054;8.524;2023-04-15T07:45:18;7.20;97.00
10030;DHT22;5055;52.054;8.524;2023-04-15T07:47:46;7.20;97.00
10030;DHT22;5055;52.054;8.524;2023-04-15T07:50:14;7.20;97.00
10030;DHT22;5055;52.054;8.524;2023-04-15T07:52:43;7.30;97.00
10030;DHT22;5055;52.054;8.524;2023-04-15T07:55:11;7.40;97.00
10030;DHT22;5055;52.054;8.524;2023-04-15T07:57:39;7.40;97.00
10030;DHT22;5055;52.054;8.524;2023-04-15T08:00:08;7.40;97.00
10030;DHT22;5055;52.054;8.524;2023-04-15T08:02:38;7.40;97.00
10030;DHT22;5055;52.054;8.524;2023-04-15T08:05:08;7.50;97.00
10030;DHT22;5055;52.054;8.524;2023-04-15T08:07:36;7.50;97.00
10030;DHT22;5055;52.054;8.524;2023-04-15T08:10:06;7.60;97.00
10030;DHT22;5055;52.054;8.524;2023-04-15T08:12:34;7.60;97.00
10030;DHT22;5055;52.054;8.524;2023-04-15T08:15:03;7.60;97.00
10030;DHT22;5055;52.054;8.524;2023-04-15T08:17:31;7.60;97.00
10030;DHT22;5055;52.054;8.524;2023-04-15T08:20:02;7.60;97.00
10030;DHT22;5055;52.054;8.524;2023-04-15T08:22:31;7.60;97.00
10030;DHT22;5055;52.054;8.524;2023-04-15T08:25:00;7.60;97.00
10030;DHT22;5055;52.054;8.524;2023-04-15T08:27:29;7.60;97.00
10030;DHT22;5055;52.054;8.524;2023-04-15T08:29:57;7.60;97.00
10030;DHT22;5055;52.054;8.524;2023-04-15T08:32:25;7.60;97.00
10030;DHT22;5055;52.054;8.524;2023-04-15T08:34:53;7.60;97.00
10030;DHT22;5055;52.054;8.524;2023-04-15T08:37:23;7.60;97.00
10030;DHT22;5055;52.054;8.524;2023-04-15T08:39:52;7.60;97.00
10030;DHT22;5055;52.054;8.524;2023-04-15T08:42:26;7.70;97.00
10030;DHT22;5055;52.054;8.524;2023-04-15T08:44:54;7.70;97.00
10030;DHT22;5055;52.054;8.524;2023-04-15T08:47:25;7.70;97.00
10030;DHT22;5055;52.054;8.524;2023-04-15T08:49:54;7.80;97.00
10030;DHT22;5055;52.054;8.524;2023-04-15T08:52:26;7.80;97.00
10030;DHT22;5055;52.054;8.524;2023-04-15T08:54:56;7.90;97.00
10030;DHT22;5055;52.054;8.524;2023-04-15T08:57:26;7.90;97.00
10030;DHT22;5055;52.054;8.524;2023-04-15T08:59:54;7.90;97.00
10030;DHT22;5055;52.054;8.524;2023-04-15T09:02:23;8.00;97.00
10030;DHT22;5055;52.054;8.524;2023-04-15T09:04:53;8.00;97.00
10030;DHT22;5055;52.054;8.524;2023-04-15T09:07:21;8.10;97.00
10030;DHT22;5055;52.054;8.524;2023-04-15T09:09:50;8.10;97.00
10030;DHT22;5055;52.054;8.524;2023-04-15T09:12:19;8.20;97.00
10030;DHT22;5055;52.054;8.524;2023-04-15T09:14:47;8.30;97.00
10030;DHT22;5055;52.054;8.524;2023-04-15T09:17:18;8.40;97.00
10030;DHT22;5055;52.054;8.524;2023-04-15T09:19:47;8.40;97.00
10030;DHT22;5055;52.054;8.524;2023-04-15T09:22:15;8.50;97.00
10030;DHT22;5055;52.054;8.524;2023-04-15T09:24:46;8.60;97.00
10030;DHT22;5055;52.054;8.524;2023-04-15T09:27:20;8.60;97.00
10030;DHT22;5055;52.054;8.524;2023-04-15T09:29:49;8.70;97.00
10030;DHT22;5055;52.054;8.524;2023-04-15T09:32:17;8.70;97.00
10030;DHT22;5055;52.054;8.524;2023-04-15T09:34:47;8.80;97.00
10030;DHT22;5055;52.054;8.524;2023-04-15T09:37:15;8.80;97.00
10030;DHT22;5055;52.054;8.524;2023-04-15T09:39:58;8.80;97.00
10030;DHT22;5055;52.054;8.524;2023-04-15T09:42:28;8.70;97.00
10030;DHT22;5055;52.054;8.524;2023-04-15T09:45:07;8.70;97.00
10030;DHT22;5055;52.054;8.524;2023-04-15T09:47:35;8.70;97.00
10030;DHT22;5055;52.054;8.524;2023-04-15T09:50:04;8.70;97.00
10030;DHT22;5055;52.054;8.524;2023-04-15T09:52:38;8.70;97.00
10030;DHT22;5055;52.054;8.524;2023-04-15T09:55:12;8.70;97.00
10030;DHT22;5055;52.054;8.524;2023-04-15T09:57:42;8.70;97.00
10030;DHT22;5055;52.054;8.524;2023-04-15T10:00:11;8.60;97.00
10030;DHT22;5055;52.054;8.524;2023-04-15T10:02:41;8.60;97.00
10030;DHT22;5055;52.054;8.524;2023-04-15T10:05:10;8.60;97.00
10030;DHT22;5055;52.054;8.524;2023-04-15T10:07:45;8.60;97.00
10030;DHT22;5055;52.054;8.524;2023-04-15T10:10:14;8.60;97.00
10030;DHT22;5055;52.054;8.524;2023-04-15T10:12:44;8.50;97.00
10030;DHT22;5055;52.054;8.524;2023-04-15T10:15:15;8.50;97.00
10030;DHT22;5055;52.054;8.524;2023-04-15T10:17:44;8.60;97.00
10030;DHT22;5055;52.054;8.524;2023-04-15T10:20:16;8.60;97.00
10030;DHT22;5055;52.054;8.524;2023-04-15T10:22:46;8.60;97.00
10030;DHT22;5055;52.054;8.524;2023-04-15T10:25:14;8.60;97.00
10030;DHT22;5055;52.054;8.524;2023-04-15T10:27:44;8.60;97.00
10030;DHT22;5055;52.054;8.524;2023-04-15T10:30:17;8.60;97.00
10030;DHT22;5055;52.054;8.524;2023-04-15T10:32:48;8.60;97.00
10030;DHT22;5055;52.054;8.524;2023-04-15T10:35:17;8.60;97.00
10030;DHT22;5055;52.054;8.524;2023-04-15T10:37:46;8.60;97.00
10030;DHT22;5055;52.054;8.524;2023-04-15T10:40:29;8.70;97.00
10030;DHT22;5055;52.054;8.524;2023-04-15T10:43:03;8.70;97.00
10030;DHT22;5055;52.054;8.524;2023-04-15T10:45:33;8.70;97.00
10030;DHT22;5055;52.054;8.524;2023-04-15T10:48:05;8.70;97.00
10030;DHT22;5055;52.054;8.524;2023-04-15T10:50:34;8.70;97.00
10030;DHT22;5055;52.054;8.524;2023-04-15T10:53:05;8.70;97.00
10030;DHT22;5055;52.054;8.524;2023-04-15T10:55:33;8.70;97.00
10030;DHT22;5055;52.054;8.524;2023-04-15T10:58:03;8.70;97.00
10030;DHT22;5055;52.054;8.524;2023-04-15T11:00:36;8.70;97.00
10030;DHT22;5055;52.054;8.524;2023-04-15T11:03:06;8.70;97.00
10030;DHT22;5055;52.054;8.524;2023-04-15T11:05:59;8.70;97.00
10030;DHT22;5055;52.054;8.524;2023-04-15T11:08:55;8.70;97.00
10030;DHT22;5055;52.054;8.524;2023-04-15T11:14:33;8.60;97.00
10030;DHT22;5055;52.054;8.524;2023-04-15T11:17:03;8.60;97.00
10030;DHT22;5055;52.054;8.524;2023-04-15T11:19:35;8.70;97.00
10030;DHT22;5055;52.054;8.524;2023-04-15T11:22:08;8.70;97.00
10030;DHT22;5055;52.054;8.524;2023-04-15T11:24:36;8.60;97.00
10030;DHT22;5055;52.054;8.524;2023-04-15T11:27:04;8.70;97.00
10030;DHT22;5055;52.054;8.524;2023-04-15T11:29:33;8.70;97.00
10030;DHT22;5055;52.054;8.524;2023-04-15T11:32:04;8.70;97.00
10030;DHT22;5055;52.054;8.524;2023-04-15T11:34:33;8.70;97.00
10030;DHT22;5055;52.054;8.524;2023-04-15T11:37:03;8.70;97.00
10030;DHT22;5055;52.054;8.524;2023-04-15T11:39:36;8.70;97.00
10030;DHT22;5055;52.054;8.524;2023-04-15T11:42:15;8.70;97.00
10030;DHT22;5055;52.054;8.524;2023-04-15T11:44:45;8.70;97.00
10030;DHT22;5055;52.054;8.524;2023-04-15T11:47:23;8.70;97.00
10030;DHT22;5055;52.054;8.524;2023-04-15T11:49:52;8.70;97.00
10030;DHT22;5055;52.054;8.524;2023-04-15T11:52:20;8.70;97.00
10030;DHT22;5055;52.054;8.524;2023-04-15T11:54:49;8.70;97.00
10030;DHT22;5055;52.054;8.524;2023-04-15T11:57:17;8.70;97.00
10030;DHT22;5055;52.054;8.524;2023-04-15T11:59:47;8.70;97.00
10030;DHT22;5055;52.054;8.524;2023-04-15T12:02:17;8.80;97.00
10030;DHT22;5055;52.054;8.524;2023-04-15T12:04:46;8.80;97.00
10030;DHT22;5055;52.054;8.524;2023-04-15T12:07:14;8.80;97.00
10030;DHT22;5055;52.054;8.524;2023-04-15T12:09:42;8.70;97.00
10030;DHT22;5055;52.054;8.524;2023-04-15T12:12:11;8.70;97.00
10030;DHT22;5055;52.054;8.524;2023-04-15T12:14:39;8.70;97.00
10030;DHT22;5055;52.054;8.524;2023-04-15T12:17:11;8.70;97.00
10030;DHT22;5055;52.054;8.524;2023-04-15T12:19:41;8.70;97.00
10030;DHT22;5055;52.054;8.524;2023-04-15T12:22:12;8.70;97.00
10030;DHT22;5055;52.054;8.524;2023-04-15T12:24:42;8.80;97.00
10030;DHT22;5055;52.054;8.524;2023-04-15T12:27:15;8.70;97.00
10030;DHT22;5055;52.054;8.524;2023-04-15T12:29:47;8.70;97.00
10030;DHT22;5055;52.054;8.524;2023-04-15T12:32:21;8.70;97.00
10030;DHT22;5055;52.054;8.524;2023-04-15T12:34:51;8.70;97.00
10030;DHT22;5055;52.054;8.524;2023-04-15T12:37:20;8.70;97.00
10030;DHT22;5055;52.054;8.524;2023-04-15T12:39:49;8.70;97.00
10030;DHT22;5055;52.054;8.524;2023-04-15T12:42:17;8.70;97.00
10030;DHT22;5055;52.054;8.524;2023-04-15T12:44:46;8.80;97.00
10030;DHT22;5055;52.054;8.524;2023-04-15T12:47:14;8.70;97.00
10030;DHT22;5055;52.054;8.524;2023-04-15T12:49:43;8.70;97.00
10030;DHT22;5055;52.054;8.524;2023-04-15T12:52:11;8.80;97.00
10030;DHT22;5055;52.054;8.524;2023-04-15T12:54:40;8.80;97.00
10030;DHT22;5055;52.054;8.524;2023-04-15T12:57:09;8.70;97.00
10030;DHT22;5055;52.054;8.524;2023-04-15T12:59:37;8.80;97.00
10030;DHT22;5055;52.054;8.524;2023-04-15T13:02:05;8.70;97.00
10030;DHT22;5055;52.054;8.524;2023-04-15T13:04:33;8.80;97.00
10030;DHT22;5055;52.054;8.524;2023-04-15T13:07:03;8.70;97.00
10030;DHT22;5055;52.054;8.524;2023-04-15T13:09:31;8.70;97.00
10030;DHT22;5055;52.054;8.524;2023-04-15T13:12:00;8.70;97.00
10030;DHT22;5055;52.054;8.524;2023-04-15T13:14:28;8.70;97.00
10030;DHT22;5055;52.054;8.524;2023-04-15T13:16:56;8.70;97.00
10030;DHT22;5055;52.054;8.524;2023-04-15T13:19:25;8.70;97.00
10030;DHT22;5055;52.054;8.524;2023-04-15T13:21:53;8.70;97.00
10030;DHT22;5055;52.054;8.524;2023-04-15T13:24:22;8.70;97.00
10030;DHT22;5055;52.054;8.524;2023-04-15T13:26:51;8.70;97.00
10030;DHT22;5055;52.054;8.524;2023-04-15T13:29:19;8.70;97.00
10030;DHT22;5055;52.054;8.524;2023-04-15T13:31:47;8.70;97.00
10030;DHT22;5055;52.054;8.524;2023-04-15T13:34:16;8.70;97.00
10030;DHT22;5055;52.054;8.524;2023-04-15T13:36:44;8.70;97.00
10030;DHT22;5055;52.054;8.524;2023-04-15T13:39:12;8.70;97.00
10030;DHT22;5055;52.054;8.524;2023-04-15T13:41:41;8.70;97.00
10030;DHT22;5055;52.054;8.524;2023-04-15T13:44:09;8.70;97.00
10030;DHT22;5055;52.054;8.524;2023-04-15T13:46:38;8.70;97.00
10030;DHT22;5055;52.054;8.524;2023-04-15T13:49:07;8.70;97.00
10030;DHT22;5055;52.054;8.524;2023-04-15T13:51:35;8.70;97.00
10030;DHT22;5055;52.054;8.524;2023-04-15T13:54:03;8.70;97.00
10030;DHT22;5055;52.054;8.524;2023-04-15T13:56:32;8.70;97.00
10030;DHT22;5055;52.054;8.524;2023-04-15T13:59:02;8.80;97.00
10030;DHT22;5055;52.054;8.524;2023-04-15T14:01:33;8.80;97.00
10030;DHT22;5055;52.054;8.524;2023-04-15T14:04:01;8.80;97.00
10030;DHT22;5055;52.054;8.524;2023-04-15T14:06:30;8.80;97.00
10030;DHT22;5055;52.054;8.524;2023-04-15T14:08:58;8.80;97.00
10030;DHT22;5055;52.054;8.524;2023-04-15T14:11:26;8.80;97.00
10030;DHT22;5055;52.054;8.524;2023-04-15T14:13:55;8.80;97.00
10030;DHT22;5055;52.054;8.524;2023-04-15T14:16:25;8.80;97.00
10030;DHT22;5055;52.054;8.524;2023-04-15T14:18:53;8.80;97.00
10030;DHT22;5055;52.054;8.524;2023-04-15T14:21:21;8.80;97.00
10030;DHT22;5055;52.054;8.524;2023-04-15T14:23:49;8.80;97.00
10030;DHT22;5055;52.054;8.524;2023-04-15T14:26:17;8.80;97.00
10030;DHT22;5055;52.054;8.524;2023-04-15T14:28:47;8.80;97.00
10030;DHT22;5055;52.054;8.524;2023-04-15T14:31:15;8.80;97.00
10030;DHT22;5055;52.054;8.524;2023-04-15T14:33:44;8.80;97.00
10030;DHT22;5055;52.054;8.524;2023-04-15T14:36:13;8.80;97.00
10030;DHT22;5055;52.054;8.524;2023-04-15T14:38:41;8.90;97.00
10030;DHT22;5055;52.054;8.524;2023-04-15T14:41:09;8.90;97.00
10030;DHT22;5055;52.054;8.524;2023-04-15T14:43:38;8.90;97.00
10030;DHT22;5055;52.054;8.524;2023-04-15T14:46:06;8.90;97.00
10030;DHT22;5055;52.054;8.524;2023-04-15T14:48:35;8.90;97.00
10030;DHT22;5055;52.054;8.524;2023-04-15T14:51:04;8.90;97.00
10030;DHT22;5055;52.054;8.524;2023-04-15T14:53:33;8.90;97.00
10030;DHT22;5055;52.054;8.524;2023-04-15T14:56:01;8.90;97.00
10030;DHT22;5055;52.054;8.524;2023-04-15T14:58:29;8.90;97.00
10030;DHT22;5055;52.054;8.524;2023-04-15T15:00:58;9.00;97.00
10030;DHT22;5055;52.054;8.524;2023-04-15T15:03:27;9.00;97.00
10030;DHT22;5055;52.054;8.524;2023-04-15T15:05:56;9.00;97.00
10030;DHT22;5055;52.054;8.524;2023-04-15T15:08:25;9.00;97.00
10030;DHT22;5055;52.054;8.524;2023-04-15T15:10:54;9.10;97.00
10030;DHT22;5055;52.054;8.524;2023-04-15T15:13:22;9.10;97.00
10030;DHT22;5055;52.054;8.524;2023-04-15T15:15:51;9.10;97.00
10030;DHT22;5055;52.054;8.524;2023-04-15T15:18:19;9.20;97.00
10030;DHT22;5055;52.054;8.524;2023-04-15T15:20:47;9.20;97.00
10030;DHT22;5055;52.054;8.524;2023-04-15T15:23:15;9.20;97.00
10030;DHT22;5055;52.054;8.524;2023-04-15T15:25:45;9.20;97.00
10030;DHT22;5055;52.054;8.524;2023-04-15T15:28:13;9.20;97.00
10030;DHT22;5055;52.054;8.524;2023-04-15T15:30:41;9.20;97.00
10030;DHT22;5055;52.054;8.524;2023-04-15T15:33:09;9.20;97.00
10030;DHT22;5055;52.054;8.524;2023-04-15T15:35:38;9.20;97.00
10030;DHT22;5055;52.054;8.524;2023-04-15T15:38:07;9.20;97.00
10030;DHT22;5055;52.054;8.524;2023-04-15T15:40:38;9.20;97.00
10030;DHT22;5055;52.054;8.524;2023-04-15T15:43:07;9.20;97.00
10030;DHT22;5055;52.054;8.524;2023-04-15T15:45:36;9.20;97.00
10030;DHT22;5055;52.054;8.524;2023-04-15T15:48:04;9.20;97.00
10030;DHT22;5055;52.054;8.524;2023-04-15T15:50:33;9.20;97.00
10030;DHT22;5055;52.054;8.524;2023-04-15T15:53:01;9.20;97.00
10030;DHT22;5055;52.054;8.524;2023-04-15T15:55:29;9.20;97.00
10030;DHT22;5055;52.054;8.524;2023-04-15T15:57:57;9.20;97.00
10030;DHT22;5055;52.054;8.524;2023-04-15T16:00:27;9.20;97.00
10030;DHT22;5055;52.054;8.524;2023-04-15T16:02:55;9.20;97.00
10030;DHT22;5055;52.054;8.524;2023-04-15T16:05:27;9.20;97.00
10030;DHT22;5055;52.054;8.524;2023-04-15T16:07:55;9.20;97.00
10030;DHT22;5055;52.054;8.524;2023-04-15T16:10:23;9.20;97.00
10030;DHT22;5055;52.054;8.524;2023-04-15T16:12:51;9.20;97.00
10030;DHT22;5055;52.054;8.524;2023-04-15T16:15:19;9.20;97.00
10030;DHT22;5055;52.054;8.524;2023-04-15T16:17:49;9.20;97.00